createdAt,value
2018-07-15T00:02:38.717Z,4.63
2018-07-15T00:05:36.189Z,4.40
2018-07-15T00:08:33.714Z,4.20
2018-07-15T00:11:31.803Z,4.07
2018-07-15T00:14:29.648Z,3.73
2018-07-15T00:17:27.741Z,4.63
2018-07-15T00:20:24.952Z,5.27
2018-07-15T00:23:22.470Z,5.50
2018-07-15T00:26:19.852Z,5.07
2018-07-15T00:29:17.879Z,5.07
2018-07-15T00:32:15.356Z,5.30
2018-07-15T00:35:13.418Z,5.20
2018-07-15T00:38:10.803Z,4.97
2018-07-15T00:41:08.046Z,5.07
2018-07-15T00:44:05.962Z,5.57
2018-07-15T00:47:03.875Z,5.27
2018-07-15T00:50:01.370Z,5.23
2018-07-15T00:52:59.190Z,4.70
2018-07-15T00:55:57.182Z,5.10
2018-07-15T00:58:54.566Z,5.93
2018-07-15T01:01:51.798Z,5.27
2018-07-15T01:04:49.074Z,5.83
2018-07-15T01:07:46.727Z,5.80
2018-07-15T01:10:44.050Z,5.50
2018-07-15T01:13:41.240Z,6.47
2018-07-15T01:16:39.186Z,6.13
2018-07-15T01:19:36.893Z,5.97
2018-07-15T01:22:34.963Z,5.00
2018-07-15T01:25:33.068Z,5.43
2018-07-15T01:28:30.618Z,5.73
2018-07-15T01:31:28.221Z,5.40
2018-07-15T01:34:26.350Z,5.07
2018-07-15T01:37:24.019Z,5.10
2018-07-15T01:40:21.987Z,5.90
2018-07-15T01:43:20.907Z,5.37
2018-07-15T01:46:18.611Z,6.63
2018-07-15T01:49:16.351Z,5.77
2018-07-15T01:52:13.700Z,5.13
2018-07-15T01:55:11.116Z,5.60
2018-07-15T01:58:08.899Z,5.67
2018-07-15T02:01:06.958Z,5.17
2018-07-15T02:04:04.155Z,5.60
2018-07-15T02:07:01.635Z,6.90
2018-07-15T02:09:59.582Z,5.97
2018-07-15T02:12:57.669Z,5.77
2018-07-15T02:15:55.841Z,6.23
2018-07-15T02:18:53.932Z,6.27
2018-07-15T02:21:51.347Z,6.97
2018-07-15T02:24:48.959Z,5.87
2018-07-15T02:27:46.521Z,5.60
2018-07-15T02:30:43.644Z,6.00
2018-07-15T02:33:40.739Z,6.37
2018-07-15T02:36:38.857Z,5.37
2018-07-15T02:39:35.988Z,7.10
2018-07-15T02:42:33.604Z,5.60
2018-07-15T02:45:31.170Z,4.27
2018-07-15T02:48:29.114Z,6.17
2018-07-15T02:51:26.478Z,5.77
2018-07-15T02:54:23.671Z,5.70
2018-07-15T02:57:21.018Z,6.07
2018-07-15T03:00:18.322Z,5.93
2018-07-15T03:03:15.647Z,5.57
2018-07-15T03:06:13.016Z,5.50
2018-07-15T03:09:10.177Z,5.70
2018-07-15T03:12:08.255Z,6.07
2018-07-15T03:15:06.074Z,5.67
2018-07-15T03:18:04.147Z,6.17
2018-07-15T03:21:01.535Z,5.93
2018-07-15T03:23:58.692Z,6.77
2018-07-15T03:26:55.818Z,5.90
2018-07-15T03:29:54.231Z,7.23
2018-07-15T03:32:52.530Z,6.97
2018-07-15T03:35:50.530Z,7.00
2018-07-15T03:38:48.654Z,6.30
2018-07-15T03:41:46.227Z,6.50
2018-07-15T03:44:43.553Z,5.00
2018-07-15T03:47:41.553Z,4.93
2018-07-15T03:50:39.522Z,5.10
2018-07-15T03:53:36.593Z,4.83
2018-07-15T03:56:33.906Z,5.27
2018-07-15T03:59:31.502Z,5.30
2018-07-15T04:02:28.953Z,4.87
2018-07-15T04:05:26.427Z,4.80
2018-07-15T04:08:24.124Z,4.97
2018-07-15T04:11:21.217Z,5.07
2018-07-15T04:14:19.082Z,3.67
2018-07-15T04:17:17.071Z,4.17
2018-07-15T04:20:14.766Z,4.07
2018-07-15T04:23:13.219Z,3.93
2018-07-15T04:26:11.254Z,4.03
2018-07-15T04:29:09.295Z,4.50
2018-07-15T04:32:07.284Z,3.93
2018-07-15T04:35:04.763Z,3.23
2018-07-15T04:38:02.766Z,3.90
2018-07-15T04:41:00.839Z,4.17
2018-07-15T04:43:58.961Z,3.80
2018-07-15T04:46:57.309Z,3.80
2018-07-15T04:49:54.506Z,3.43
2018-07-15T04:52:51.850Z,4.33
2018-07-15T04:55:49.126Z,3.90
2018-07-15T04:58:46.160Z,4.03
2018-07-15T05:01:48.544Z,4.30
2018-07-15T05:04:46.715Z,4.43
2018-07-15T05:07:44.367Z,4.47
2018-07-15T05:10:41.606Z,4.40
2018-07-15T05:13:39.219Z,4.47
2018-07-15T05:16:36.791Z,4.03
2018-07-15T05:19:34.461Z,4.40
2018-07-15T05:22:32.579Z,4.23
2018-07-15T05:25:30.039Z,3.77
2018-07-15T05:28:28.063Z,4.10
2018-07-15T05:31:26.150Z,4.20
2018-07-15T05:34:24.298Z,4.27
2018-07-15T05:37:21.790Z,4.23
2018-07-15T05:40:19.991Z,4.00
2018-07-15T05:43:17.697Z,4.60
2018-07-15T05:46:15.431Z,4.40
2018-07-15T05:49:13.775Z,4.30
2018-07-15T05:52:10.920Z,4.40
2018-07-15T05:55:08.921Z,4.08
2018-07-15T05:58:06.387Z,4.50
2018-07-15T06:01:03.447Z,4.20
2018-07-15T06:04:00.680Z,4.55
2018-07-15T06:06:57.808Z,3.87
2018-07-15T06:09:55.009Z,3.90
2018-07-15T06:12:52.244Z,4.20
2018-07-15T06:15:49.526Z,3.77
2018-07-15T06:18:47.691Z,3.80
2018-07-15T06:21:45.546Z,3.80
2018-07-15T06:24:43.447Z,3.85
2018-07-15T06:27:41.275Z,3.70
2018-07-15T06:30:38.638Z,3.40
2018-07-15T06:33:35.720Z,3.58
2018-07-15T06:36:33.245Z,3.67
2018-07-15T06:39:30.754Z,3.50
2018-07-15T06:42:28.587Z,3.45
2018-07-15T06:45:26.734Z,3.20
2018-07-15T06:48:24.929Z,3.05
2018-07-15T06:51:22.839Z,3.33
2018-07-15T06:54:20.097Z,2.80
2018-07-15T06:57:18.030Z,3.20
2018-07-15T07:00:16.046Z,2.70
2018-07-15T07:03:13.317Z,2.58
2018-07-15T07:06:11.403Z,3.65
2018-07-15T07:09:08.699Z,2.72
2018-07-15T07:12:05.889Z,2.50
2018-07-15T07:15:04.200Z,2.58
2018-07-15T07:18:01.518Z,2.50
2018-07-15T07:20:59.780Z,2.50
2018-07-15T07:23:58.079Z,2.37
2018-07-15T07:26:55.687Z,2.50
2018-07-15T07:29:53.429Z,2.27
2018-07-15T07:32:50.795Z,2.55
2018-07-15T07:35:48.291Z,2.27
2018-07-15T07:38:45.958Z,2.10
2018-07-15T07:41:43.806Z,3.02
2018-07-15T07:44:40.983Z,1.98
2018-07-15T07:47:38.426Z,1.70
2018-07-15T07:50:37.120Z,2.22
2018-07-15T07:53:34.591Z,1.77
2018-07-15T07:56:32.030Z,1.85
2018-07-15T07:59:29.986Z,1.80
2018-07-15T08:02:27.363Z,1.62
2018-07-15T08:05:25.227Z,1.60
2018-07-15T08:08:22.876Z,0.95
2018-07-15T08:11:20.906Z,1.22
2018-07-15T08:14:17.977Z,1.00
2018-07-15T08:17:16.021Z,1.12
2018-07-15T08:20:14.144Z,1.10
2018-07-15T08:23:11.213Z,1.30
2018-07-15T08:26:09.117Z,1.30
2018-07-15T08:29:06.327Z,1.15
2018-07-15T08:32:03.318Z,1.02
2018-07-15T08:35:00.655Z,1.27
2018-07-15T08:37:58.681Z,0.78
2018-07-15T08:40:56.287Z,0.95
2018-07-15T08:43:53.606Z,0.60
2018-07-15T08:46:51.767Z,0.65
2018-07-15T08:49:48.918Z,1.10
2018-07-15T08:52:46.217Z,1.00
2018-07-15T08:55:44.154Z,0.80
2018-07-15T08:58:42.006Z,0.90
2018-07-15T09:01:39.246Z,0.88
2018-07-15T09:04:37.543Z,1.30
2018-07-15T09:07:34.891Z,0.68
2018-07-15T09:10:32.164Z,0.88
2018-07-15T09:13:29.290Z,0.90
2018-07-15T09:16:26.886Z,1.00
2018-07-15T09:19:24.886Z,0.95
2018-07-15T09:22:22.897Z,0.80
2018-07-15T09:25:20.356Z,0.70
2018-07-15T09:28:18.466Z,0.70
2018-07-15T09:31:16.328Z,0.70
2018-07-15T09:34:14.420Z,0.62
2018-07-15T09:37:12.467Z,0.80
2018-07-15T09:40:10.592Z,0.82
2018-07-15T09:43:07.810Z,0.60
2018-07-15T09:46:05.813Z,1.20
2018-07-15T09:49:03.962Z,0.90
2018-07-15T09:52:01.654Z,0.80
2018-07-15T09:54:58.747Z,0.60
2018-07-15T09:57:55.802Z,0.50
2018-07-15T10:00:59.372Z,0.90
2018-07-15T10:03:57.608Z,1.20
2018-07-15T10:06:55.794Z,0.80
2018-07-15T10:09:53.595Z,1.00
2018-07-15T10:12:51.469Z,0.70
2018-07-15T10:15:49.835Z,0.90
2018-07-15T10:18:47.761Z,1.00
2018-07-15T10:21:45.672Z,0.77
2018-07-15T10:24:43.234Z,0.90
2018-07-15T10:27:40.960Z,0.80
2018-07-15T10:30:38.884Z,0.68
2018-07-15T10:33:36.954Z,0.83
2018-07-15T10:36:35.130Z,0.80
2018-07-15T10:39:33.122Z,1.10
2018-07-15T10:42:31.209Z,0.80
2018-07-15T10:45:28.668Z,0.90
2018-07-15T10:48:26.035Z,1.00
2018-07-15T10:51:23.312Z,0.50
2018-07-15T10:54:20.404Z,0.80
2018-07-15T10:57:18.091Z,0.78
2018-07-15T11:00:15.465Z,1.17
2018-07-15T11:03:13.248Z,1.10
2018-07-15T11:06:10.439Z,0.80
2018-07-15T11:09:07.945Z,0.80
2018-07-15T11:12:05.534Z,0.70
2018-07-15T11:15:03.290Z,0.70
2018-07-15T11:18:00.352Z,0.82
2018-07-15T11:20:57.927Z,0.57
2018-07-15T11:23:55.427Z,0.70
2018-07-15T11:26:53.086Z,0.68
2018-07-15T11:29:50.424Z,0.75
2018-07-15T11:32:48.547Z,1.02
2018-07-15T11:35:46.446Z,0.88
2018-07-15T11:38:43.607Z,0.80
2018-07-15T11:41:41.635Z,0.80
2018-07-15T11:44:39.646Z,0.80
2018-07-15T11:47:37.184Z,0.67
2018-07-15T11:50:35.204Z,0.87
2018-07-15T11:53:33.311Z,1.03
2018-07-15T11:56:30.363Z,0.97
2018-07-15T11:59:28.176Z,0.83
2018-07-15T12:02:25.842Z,0.70
2018-07-15T12:05:23.850Z,0.80
2018-07-15T12:08:21.210Z,1.00
2018-07-15T12:11:18.343Z,0.80
2018-07-15T12:14:16.189Z,0.60
2018-07-15T12:17:14.106Z,0.80
2018-07-15T12:20:11.904Z,0.70
2018-07-15T12:23:09.889Z,0.97
2018-07-15T12:26:07.819Z,1.10
2018-07-15T12:29:05.710Z,1.07
2018-07-15T12:32:03.458Z,1.00
2018-07-15T12:35:00.682Z,0.90
2018-07-15T12:37:58.983Z,0.90
2018-07-15T12:40:57.259Z,0.80
2018-07-15T12:43:55.346Z,0.77
2018-07-15T12:46:52.475Z,0.73
2018-07-15T12:49:50.312Z,0.80
2018-07-15T12:52:48.196Z,0.77
2018-07-15T12:55:45.496Z,0.70
2018-07-15T12:58:43.348Z,1.10
2018-07-15T13:01:40.598Z,1.20
2018-07-15T13:04:38.474Z,0.90
2018-07-15T13:07:36.220Z,0.70
2018-07-15T13:10:34.191Z,0.80
2018-07-15T13:13:32.191Z,0.87
2018-07-15T13:16:29.810Z,0.70
2018-07-15T13:19:27.522Z,0.90
2018-07-15T13:22:25.289Z,0.87
2018-07-15T13:25:23.216Z,0.80
2018-07-15T13:28:21.130Z,0.77
2018-07-15T13:31:19.116Z,0.90
2018-07-15T13:34:16.738Z,1.00
2018-07-15T13:37:13.864Z,1.00
2018-07-15T13:40:11.811Z,0.80
2018-07-15T13:43:09.915Z,0.67
2018-07-15T13:46:07.676Z,0.77
2018-07-15T13:49:05.032Z,0.80
2018-07-15T13:52:02.201Z,0.93
2018-07-15T13:54:59.981Z,1.10
2018-07-15T13:57:57.586Z,1.00
2018-07-15T14:00:55.305Z,0.77
2018-07-15T14:03:53.347Z,0.73
2018-07-15T14:06:50.562Z,0.90
2018-07-15T14:09:47.746Z,0.97
2018-07-15T14:12:45.016Z,0.90
2018-07-15T14:15:42.714Z,1.00
2018-07-15T14:18:39.936Z,0.90
2018-07-15T14:21:37.731Z,1.17
2018-07-15T14:24:35.707Z,1.30
2018-07-15T14:27:33.935Z,0.80
2018-07-15T14:30:31.641Z,0.90
2018-07-15T14:33:29.122Z,1.20
2018-07-15T14:36:26.455Z,0.80
2018-07-15T14:39:24.022Z,0.90
2018-07-15T14:42:21.478Z,1.10
2018-07-15T14:45:19.643Z,1.20
2018-07-15T14:48:17.248Z,0.80
2018-07-15T14:51:14.446Z,1.07
2018-07-15T14:54:12.188Z,1.13
2018-07-15T14:57:10.116Z,1.00
2018-07-15T15:00:08.441Z,1.17
2018-07-15T15:03:06.624Z,1.00
2018-07-15T15:06:04.078Z,1.80
2018-07-15T15:09:01.716Z,1.53
2018-07-15T15:11:59.271Z,1.70
2018-07-15T15:14:56.747Z,1.10
2018-07-15T15:17:54.207Z,1.40
2018-07-15T15:20:51.761Z,1.00
2018-07-15T15:23:48.996Z,1.00
2018-07-15T15:26:46.895Z,1.07
2018-07-15T15:29:44.153Z,1.10
2018-07-15T15:32:41.507Z,1.00
2018-07-15T15:35:38.759Z,1.07
2018-07-15T15:38:36.225Z,1.30
2018-07-15T15:41:33.472Z,0.90
2018-07-15T15:44:31.726Z,1.03
2018-07-15T15:47:29.506Z,1.30
2018-07-15T15:50:27.048Z,1.03
2018-07-15T15:53:25.010Z,1.83
2018-07-15T15:56:22.640Z,8.23
2018-07-15T15:59:20.238Z,1.53
2018-07-15T16:02:18.315Z,1.10
2018-07-15T16:05:15.845Z,2.07
2018-07-15T16:08:13.810Z,1.23
2018-07-15T16:11:11.806Z,1.53
2018-07-15T16:14:09.390Z,1.00
2018-07-15T16:17:07.682Z,5.20
2018-07-15T16:20:04.794Z,1.10
2018-07-15T16:23:02.436Z,1.20
2018-07-15T16:25:59.640Z,0.80
2018-07-15T16:28:57.152Z,1.77
2018-07-15T16:31:54.401Z,1.63
2018-07-15T16:34:52.394Z,2.70
2018-07-15T16:37:49.777Z,1.10
2018-07-15T16:40:47.139Z,1.10
2018-07-15T16:43:44.976Z,1.10
2018-07-15T16:46:42.670Z,1.30
2018-07-15T16:49:39.768Z,3.37
2018-07-15T16:52:37.977Z,1.23
2018-07-15T16:55:35.987Z,1.43
2018-07-15T16:58:33.223Z,1.90
2018-07-15T17:01:30.593Z,1.27
2018-07-15T17:04:28.304Z,1.00
2018-07-15T17:07:25.814Z,1.50
2018-07-15T17:10:22.900Z,1.20
2018-07-15T17:13:20.656Z,1.10
2018-07-15T17:16:17.988Z,1.20
2018-07-15T17:19:16.048Z,1.00
2018-07-15T17:22:13.946Z,1.27
2018-07-15T17:25:11.831Z,1.20
2018-07-15T17:28:09.691Z,1.20
2018-07-15T17:31:07.052Z,1.40
2018-07-15T17:34:05.174Z,1.03
2018-07-15T17:37:02.905Z,1.13
2018-07-15T17:40:00.081Z,1.10
2018-07-15T17:42:57.552Z,1.57
2018-07-15T17:45:54.590Z,1.40
2018-07-15T17:48:51.645Z,1.40
2018-07-15T17:51:48.971Z,1.50
2018-07-15T17:54:46.146Z,1.50
2018-07-15T17:57:43.431Z,1.20
2018-07-15T18:00:40.798Z,1.27
2018-07-15T18:03:38.134Z,1.60
2018-07-15T18:06:36.359Z,1.53
2018-07-15T18:09:33.506Z,1.27
2018-07-15T18:12:31.586Z,1.40
2018-07-15T18:15:28.787Z,1.33
2018-07-15T18:18:26.798Z,1.63
2018-07-15T18:21:24.326Z,1.40
2018-07-15T18:24:21.921Z,1.50
2018-07-15T18:27:19.867Z,1.20
2018-07-15T18:30:17.853Z,1.40
2018-07-15T18:33:16.096Z,1.33
2018-07-15T18:36:13.951Z,1.30
2018-07-15T18:39:11.649Z,1.50
2018-07-15T18:42:09.797Z,1.50
2018-07-15T18:45:07.558Z,1.47
2018-07-15T18:48:04.995Z,1.73
2018-07-15T18:51:02.908Z,1.63
2018-07-15T18:54:00.627Z,1.20
2018-07-15T18:56:57.862Z,1.60
2018-07-15T18:59:55.856Z,1.53
2018-07-15T19:02:52.954Z,1.30
2018-07-15T19:05:50.944Z,1.53
2018-07-15T19:08:48.683Z,1.20
2018-07-15T19:11:46.912Z,1.50
2018-07-15T19:14:44.831Z,1.37
2018-07-15T19:17:41.935Z,1.20
2018-07-15T19:20:39.972Z,1.43
2018-07-15T19:23:37.062Z,1.50
2018-07-15T19:26:34.462Z,1.50
2018-07-15T19:29:32.557Z,1.43
2018-07-15T19:32:30.403Z,1.53
2018-07-15T19:35:28.515Z,1.70
2018-07-15T19:38:26.284Z,1.60
2018-07-15T19:41:24.415Z,1.70
2018-07-15T19:44:21.896Z,1.73
2018-07-15T19:47:19.991Z,1.60
2018-07-15T19:50:18.142Z,1.60
2018-07-15T19:53:15.944Z,1.43
2018-07-15T19:56:13.447Z,1.63
2018-07-15T19:59:11.276Z,1.40
2018-07-15T20:02:08.910Z,1.70
2018-07-15T20:05:07.109Z,1.60
2018-07-15T20:08:04.646Z,1.63
2018-07-15T20:11:02.855Z,1.47
2018-07-15T20:14:00.304Z,1.60
2018-07-15T20:16:58.474Z,1.50
2018-07-15T20:19:56.453Z,1.67
2018-07-15T20:22:54.218Z,2.10
2018-07-15T20:25:52.183Z,1.77
2018-07-15T20:28:50.379Z,1.60
2018-07-15T20:31:48.472Z,1.70
2018-07-15T20:34:46.082Z,1.57
2018-07-15T20:37:43.819Z,1.80
2018-07-15T20:40:41.795Z,1.70
2018-07-15T20:43:39.010Z,1.90
2018-07-15T20:46:36.824Z,1.60
2018-07-15T20:49:34.888Z,2.10
2018-07-15T20:52:33.495Z,1.87
2018-07-15T20:55:31.222Z,2.10
2018-07-15T20:58:29.194Z,2.10
2018-07-15T21:01:27.227Z,2.03
2018-07-15T21:04:24.902Z,2.00
2018-07-15T21:07:22.807Z,2.00
2018-07-15T21:10:19.921Z,2.40
2018-07-15T21:13:18.036Z,2.57
2018-07-15T21:16:16.319Z,2.20
2018-07-15T21:19:13.847Z,1.93
2018-07-15T21:22:11.091Z,2.30
2018-07-15T21:25:08.259Z,2.40
2018-07-15T21:28:05.560Z,2.20
2018-07-15T21:31:03.008Z,2.30
2018-07-15T21:34:00.275Z,2.30
2018-07-15T21:36:58.156Z,2.10
2018-07-15T21:39:55.796Z,2.17
2018-07-15T21:42:53.676Z,2.57
2018-07-15T21:45:51.449Z,2.40
2018-07-15T21:48:49.054Z,2.23
2018-07-15T21:51:46.498Z,2.13
2018-07-15T21:54:44.389Z,2.30
2018-07-15T21:57:42.244Z,2.50
2018-07-15T22:00:39.593Z,3.00
2018-07-15T22:03:37.566Z,2.73
2018-07-15T22:06:47.619Z,2.60
2018-07-15T22:10:00.355Z,2.40
2018-07-15T22:12:58.344Z,2.63
2018-07-15T22:15:55.888Z,2.80
2018-07-15T22:18:53.763Z,3.27
2018-07-15T22:21:51.827Z,2.60
2018-07-15T22:24:49.773Z,2.60
2018-07-15T22:27:46.976Z,2.80
2018-07-15T22:30:44.977Z,2.50
2018-07-15T22:33:42.324Z,2.73
2018-07-15T22:36:39.726Z,2.93
2018-07-15T22:39:37.211Z,2.70
2018-07-15T22:42:34.875Z,2.50
2018-07-15T22:45:31.974Z,2.90
2018-07-15T22:48:29.911Z,2.97
2018-07-15T22:51:27.082Z,2.57
2018-07-15T22:54:24.862Z,3.27
2018-07-15T22:57:22.170Z,3.00
2018-07-15T23:00:19.374Z,3.03
2018-07-15T23:03:17.550Z,2.57
2018-07-15T23:06:27.475Z,3.00
2018-07-15T23:09:25.405Z,2.90
2018-07-15T23:12:23.559Z,3.30
2018-07-15T23:15:21.383Z,3.10
2018-07-15T23:18:19.130Z,3.07
2018-07-15T23:21:16.742Z,3.10
2018-07-15T23:24:14.610Z,3.47
2018-07-15T23:27:21.290Z,3.67
2018-07-15T23:30:19.027Z,3.50
2018-07-15T23:33:16.824Z,3.40
2018-07-15T23:36:14.760Z,3.50
2018-07-15T23:39:12.046Z,2.83
2018-07-15T23:42:09.622Z,3.67
2018-07-15T23:45:07.083Z,2.93
2018-07-15T23:48:04.238Z,3.40
2018-07-15T23:51:01.314Z,3.27
2018-07-15T23:53:58.970Z,3.90
2018-07-15T23:56:56.466Z,3.77
2018-07-15T23:59:54.308Z,3.17
